Terminal Aerodrome Forecast
Issued by NWS Austin/San Antonio, TX

Home | Current Version | Previous Version | Text Only | Print | Product List | Glossary On
Versions: 1 2 3 4 5 6 7 8 9 10 11 12 13 14 15 16 17 18 19 20 21 22 23 24
000
FTUS44 KEWX 052337
TAFSAT
TAF
KSAT 052337Z 0600/0706 15015KT P6SM FEW050
     FM060200 15010KT P6SM FEW050
     FM060700 14009KT P6SM OVC015
     FM061000 15010KT P6SM OVC008
     FM061500 15012KT P6SM OVC015
     FM061700 16015KT P6SM BKN040
     FM062000 16015G25KT P6SM SCT045=

USA.gov is the U.S. government's official web portal to all federal, state and local government web resources and services.